Time;durP1;ratioP1;P1;durP2;ratioP2;P2;SDS_P1;SDS_P2;PMS_P1;PMS_P2;Temp;Humidity;BMP_temperature;BMP_pressure;BME280_temperature;BME280_humidity;BME280_pressure;Samples;Min_cycle;Max_cycle;Signal;HPM_P1;HPM_P2
2022/05/23 00:00:01;;;;;;;5.78;1.63;;;;;;;;;;5015067;28;20053;-25
2022/05/23 00:02:27;;;;;;;3.35;1.40;;;;;;;;;;5014720;28;20049;-24
2022/05/23 00:04:54;;;;;;;5.22;1.50;;;;;;;;;;5014649;28;20084;-24
2022/05/23 00:07:30;;;;;;;3.55;1.48;;;;;;;;;;4997660;28;20099;-24
2022/05/23 00:09:56;;;;;;;2.92;1.40;;;;;;;;;;5014798;28;20382;-24
2022/05/23 00:12:23;;;;;;;5.55;1.77;;;;;;;;;;5017123;28;20042;-24
2022/05/23 00:14:50;;;;;;;7.18;1.98;;;;;;;;;;5016689;28;20038;-25
2022/05/23 00:17:16;;;;;;;4.72;1.90;;;;;;;;;;5026996;28;20076;-24
2022/05/23 00:19:42;;;;;;;5.43;1.70;;;;;;;;;;5024773;28;20099;-24
2022/05/23 00:22:09;;;;;;;7.72;2.13;;;;;;;;;;5020929;28;20053;-24
2022/05/23 00:24:35;;;;;;;3.40;2.03;;;;;;;;;;5014923;28;20057;-24
2022/05/23 00:27:01;;;;;;;4.85;1.80;;;;;;;;;;5014847;28;20042;-24
2022/05/23 00:29:30;;;;;;;5.80;1.75;;;;;;;;;;5014405;28;20095;-24
2022/05/23 00:37:27;;;;;;;4.57;1.98;;;;;;;;;;5016296;28;20046;-25
2022/05/23 00:39:54;;;;;;;6.72;1.90;;;;;;;;;;5014622;28;20053;-24
2022/05/23 00:45:08;;;;;;;3.58;1.65;;;;;;;;;;5013200;28;20469;-24
2022/05/23 00:47:35;;;;;;;4.80;1.85;;;;;;;;;;5014095;28;20049;-24
2022/05/23 00:50:01;;;;;;;4.70;1.90;;;;;;;;;;5014427;28;20523;-24
2022/05/23 00:52:43;;;;;;;4.50;1.20;;;;;;;;;;5013940;28;20074;-25
2022/05/23 00:55:19;;;;;;;4.50;1.65;;;;;;;;;;5033118;28;20041;-24
2022/05/23 00:57:47;;;;;;;5.55;1.60;;;;;;;;;;5034021;28;20085;-24
2022/05/23 01:00:14;;;;;;;5.15;1.98;;;;;;;;;;5023703;28;20104;-24
2022/05/23 01:02:40;;;;;;;3.40;1.60;;;;;;;;;;5012762;28;20088;-24
2022/05/23 01:05:08;;;;;;;3.95;1.60;;;;;;;;;;5014724;28;20041;-24
2022/05/23 01:07:34;;;;;;;5.55;1.75;;;;;;;;;;5013683;28;20099;-24
2022/05/23 01:10:00;;;;;;;5.60;1.58;;;;;;;;;;5014101;28;20056;-24
2022/05/23 01:12:28;;;;;;;7.53;1.77;;;;;;;;;;5025548;28;20042;-24
2022/05/23 01:15:00;;;;;;;4.20;2.00;;;;;;;;;;5014837;28;20042;-24
2022/05/23 01:17:31;;;;;;;6.50;1.92;;;;;;;;;;5013527;28;20038;-26
2022/05/23 01:19:57;;;;;;;8.35;2.25;;;;;;;;;;5013994;28;20168;-24
2022/05/23 01:22:52;;;;;;;9.35;2.67;;;;;;;;;;5013821;28;20046;-24
2022/05/23 01:25:19;;;;;;;5.68;3.17;;;;;;;;;;5013646;28;20046;-24
2022/05/23 01:27:47;;;;;;;6.70;2.70;;;;;;;;;;5013382;28;20180;-24
2022/05/23 01:30:14;;;;;;;9.73;3.15;;;;;;;;;;5012674;28;20092;-24
2022/05/23 01:32:40;;;;;;;5.78;2.22;;;;;;;;;;5013858;28;20062;-24
2022/05/23 01:35:06;;;;;;;6.43;2.60;;;;;;;;;;5013352;28;20046;-25
2022/05/23 01:37:33;;;;;;;6.25;3.42;;;;;;;;;;5013484;28;20042;-24
2022/05/23 01:39:59;;;;;;;5.88;2.60;;;;;;;;;;5013448;28;20049;-24
2022/05/23 01:42:25;;;;;;;5.35;2.30;;;;;;;;;;5014590;28;20054;-24
2022/05/23 01:44:51;;;;;;;7.05;2.78;;;;;;;;;;5012237;28;20085;-24
2022/05/23 01:47:18;;;;;;;8.50;3.20;;;;;;;;;;5013257;28;20405;-24
2022/05/23 01:49:45;;;;;;;8.70;3.20;;;;;;;;;;5013140;28;20089;-24
2022/05/23 01:52:11;;;;;;;6.72;2.72;;;;;;;;;;5012959;28;20081;-25
2022/05/23 01:54:37;;;;;;;7.03;2.75;;;;;;;;;;5012600;28;20054;-24
2022/05/23 01:57:04;;;;;;;8.77;3.53;;;;;;;;;;5016847;28;20108;-24
2022/05/23 02:02:15;;;;;;;8.32;2.83;;;;;;;;;;5017852;28;20049;-24
2022/05/23 02:04:42;;;;;;;8.10;3.17;;;;;;;;;;5017510;28;20042;-24
2022/05/23 02:07:08;;;;;;;6.28;3.33;;;;;;;;;;5018992;28;20429;-24
2022/05/23 02:09:34;;;;;;;5.53;2.60;;;;;;;;;;5025961;28;20413;-24
2022/05/23 02:12:03;;;;;;;6.78;2.90;;;;;;;;;;5037920;28;20111;-24
2022/05/23 02:14:29;;;;;;;6.03;2.60;;;;;;;;;;5026486;28;20045;-24
2022/05/23 02:16:55;;;;;;;8.10;2.80;;;;;;;;;;5016810;28;20048;-24
2022/05/23 02:19:21;;;;;;;6.60;3.08;;;;;;;;;;5018438;28;20465;-24
2022/05/23 02:21:47;;;;;;;5.43;3.53;;;;;;;;;;5015744;28;20099;-24
2022/05/23 02:24:13;;;;;;;9.30;2.83;;;;;;;;;;5016280;28;20504;-25
2022/05/23 02:26:39;;;;;;;5.38;2.67;;;;;;;;;;5017060;28;20046;-24
2022/05/23 02:29:08;;;;;;;5.82;2.60;;;;;;;;;;5016831;28;20054;-24
2022/05/23 02:31:34;;;;;;;10.07;2.97;;;;;;;;;;5024646;28;20127;-24
2022/05/23 02:34:01;;;;;;;9.38;3.47;;;;;;;;;;5035733;28;20049;-24
2022/05/23 02:36:28;;;;;;;6.45;2.80;;;;;;;;;;5020035;28;20049;-24
2022/05/23 02:38:54;;;;;;;6.63;3.25;;;;;;;;;;5016676;28;20038;-24
2022/05/23 02:41:20;;;;;;;8.00;3.13;;;;;;;;;;5016271;28;20049;-24
2022/05/23 02:43:46;;;;;;;5.40;3.30;;;;;;;;;;5016204;28;20045;-24
2022/05/23 02:46:13;;;;;;;5.38;2.88;;;;;;;;;;5015416;28;20107;-24
2022/05/23 02:48:39;;;;;;;7.22;3.33;;;;;;;;;;5015631;28;20112;-25
2022/05/23 02:51:05;;;;;;;8.52;3.17;;;;;;;;;;5015620;28;20045;-24
2022/05/23 02:53:31;;;;;;;6.55;3.17;;;;;;;;;;5016797;28;20508;-24
2022/05/23 02:55:57;;;;;;;4.95;3.40;;;;;;;;;;5016023;28;20038;-24
2022/05/23 02:58:23;;;;;;;9.20;3.38;;;;;;;;;;5015927;28;20050;-24
2022/05/23 03:00:50;;;;;;;6.30;3.70;;;;;;;;;;5015293;28;20050;-24
2022/05/23 03:03:16;;;;;;;6.15;3.10;;;;;;;;;;5033049;28;20052;-24
2022/05/23 03:05:46;;;;;;;8.25;3.53;;;;;;;;;;5029668;28;20045;-24
2022/05/23 03:08:16;;;;;;;7.60;3.28;;;;;;;;;;5015756;28;20045;-24
2022/05/23 03:10:42;;;;;;;5.95;3.38;;;;;;;;;;5017464;28;20524;-24
2022/05/23 03:13:09;;;;;;;7.05;3.65;;;;;;;;;;5032088;28;20049;-24
2022/05/23 03:15:35;;;;;;;7.88;3.78;;;;;;;;;;5013226;28;20046;-24
2022/05/23 03:18:02;;;;;;;8.10;4.10;;;;;;;;;;5015618;28;20038;-24
2022/05/23 03:20:28;;;;;;;8.07;3.92;;;;;;;;;;5014922;28;20053;-24
2022/05/23 03:28:24;;;;;;;7.38;4.60;;;;;;;;;;5014422;28;20045;-24
2022/05/23 03:30:50;;;;;;;7.63;4.43;;;;;;;;;;5014952;28;20069;-24
2022/05/23 03:33:16;;;;;;;7.60;3.83;;;;;;;;;;5027687;28;20136;-24
2022/05/23 03:35:43;;;;;;;7.03;4.60;;;;;;;;;;5019814;28;20554;-24
2022/05/23 03:38:09;;;;;;;8.95;3.97;;;;;;;;;;5015361;28;20046;-24
2022/05/23 03:40:36;;;;;;;8.23;4.00;;;;;;;;;;5015116;28;20046;-24
2022/05/23 03:43:03;;;;;;;10.60;4.60;;;;;;;;;;5016005;28;20077;-24
2022/05/23 03:45:30;;;;;;;8.02;4.07;;;;;;;;;;4990223;28;20081;-24
2022/05/23 03:47:56;;;;;;;7.90;4.32;;;;;;;;;;5015575;28;20046;-24
2022/05/23 03:50:25;;;;;;;9.95;4.18;;;;;;;;;;5015684;28;20125;-25
2022/05/23 03:52:53;;;;;;;6.93;4.50;;;;;;;;;;5015617;28;20053;-24
2022/05/23 03:55:20;;;;;;;7.97;3.88;;;;;;;;;;5014596;28;20322;-24
2022/05/23 03:57:46;;;;;;;8.43;4.05;;;;;;;;;;5015308;28;20129;-24
2022/05/23 04:00:13;;;;;;;13.55;5.03;;;;;;;;;;5014687;28;20069;-24
2022/05/23 04:02:40;;;;;;;9.40;4.10;;;;;;;;;;5015252;28;20046;-24
2022/05/23 04:05:07;;;;;;;7.22;4.22;;;;;;;;;;5015645;28;20042;-24
2022/05/23 04:07:36;;;;;;;6.75;4.15;;;;;;;;;;5014936;28;20481;-25
2022/05/23 04:10:06;;;;;;;8.93;4.43;;;;;;;;;;5017442;28;20059;-24
2022/05/23 04:12:32;;;;;;;11.07;4.93;;;;;;;;;;5014895;28;20494;-25
2022/05/23 04:14:58;;;;;;;10.73;4.43;;;;;;;;;;5014942;28;20053;-24
2022/05/23 04:17:27;;;;;;;6.68;3.95;;;;;;;;;;5012664;28;20046;-25
2022/05/23 04:19:53;;;;;;;9.88;4.60;;;;;;;;;;5015247;28;20053;-24
2022/05/23 04:22:19;;;;;;;9.18;4.25;;;;;;;;;;5014944;28;20180;-24
2022/05/23 04:24:45;;;;;;;8.15;4.53;;;;;;;;;;5014773;28;20515;-24
2022/05/23 04:27:11;;;;;;;8.48;4.43;;;;;;;;;;5014397;28;20044;-24
2022/05/23 04:29:37;;;;;;;10.85;4.30;;;;;;;;;;5014287;28;20125;-24
2022/05/23 04:35:12;;;;;;;8.20;4.25;;;;;;;;;;5014694;28;20093;-24
2022/05/23 04:37:34;;;;;;;7.80;4.03;;;;;;;;;;5026310;28;20490;-24
2022/05/23 04:40:00;;;;;;;8.02;3.92;;;;;;;;;;5014278;28;20437;-24
2022/05/23 04:42:26;;;;;;;7.32;4.03;;;;;;;;;;5012759;28;20469;-25
2022/05/23 04:44:52;;;;;;;9.05;4.35;;;;;;;;;;5017433;28;20124;-24
2022/05/23 04:50:04;;;;;;;9.20;3.67;;;;;;;;;;5014456;28;20129;-24
2022/05/23 04:52:30;;;;;;;11.20;4.68;;;;;;;;;;5014402;28;20061;-24
2022/05/23 04:54:59;;;;;;;7.95;4.15;;;;;;;;;;5013781;28;20065;-25
2022/05/23 04:57:25;;;;;;;10.25;3.75;;;;;;;;;;5014418;28;20063;-25
2022/05/23 04:59:51;;;;;;;7.15;4.05;;;;;;;;;;5013741;28;20049;-25
2022/05/23 05:02:25;;;;;;;6.57;3.70;;;;;;;;;;4996636;28;20050;-25
2022/05/23 05:04:51;;;;;;;11.85;4.50;;;;;;;;;;4997109;28;20485;-25
2022/05/23 05:07:17;;;;;;;7.53;3.90;;;;;;;;;;5016580;28;20099;-25
2022/05/23 05:09:45;;;;;;;6.60;3.35;;;;;;;;;;5033928;28;20053;-25
2022/05/23 05:12:12;;;;;;;10.57;3.72;;;;;;;;;;5026567;28;20117;-25
2022/05/23 05:14:42;;;;;;;10.15;3.70;;;;;;;;;;5012591;28;20543;-25
2022/05/23 05:17:08;;;;;;;7.40;3.28;;;;;;;;;;5013290;28;20531;-26
2022/05/23 05:19:34;;;;;;;8.63;3.40;;;;;;;;;;5014244;28;20387;-25
2022/05/23 05:22:00;;;;;;;7.35;3.58;;;;;;;;;;5014528;28;20053;-25
2022/05/23 05:24:27;;;;;;;9.32;3.67;;;;;;;;;;5013496;28;20049;-25
2022/05/23 05:26:53;;;;;;;9.45;3.47;;;;;;;;;;5012491;28;20505;-25
2022/05/23 05:29:19;;;;;;;5.68;3.22;;;;;;;;;;5018983;28;20428;-25
2022/05/23 05:31:52;;;;;;;8.70;3.47;;;;;;;;;;5013410;28;20061;-25
2022/05/23 05:34:21;;;;;;;7.13;3.35;;;;;;;;;;5013660;28;20157;-25
2022/05/23 05:36:49;;;;;;;6.15;3.30;;;;;;;;;;5013798;28;20103;-25
2022/05/23 05:39:19;;;;;;;11.40;3.88;;;;;;;;;;5014176;28;20125;-25
2022/05/23 05:41:56;;;;;;;7.43;2.97;;;;;;;;;;5013243;28;20056;-25
2022/05/23 05:44:26;;;;;;;6.07;3.25;;;;;;;;;;5013026;28;20245;-25
2022/05/23 05:46:55;;;;;;;7.55;3.75;;;;;;;;;;5013735;28;20046;-25
2022/05/23 05:49:23;;;;;;;9.68;3.97;;;;;;;;;;5013087;28;20060;-25
2022/05/23 05:51:50;;;;;;;7.00;3.70;;;;;;;;;;5013752;28;20440;-25
2022/05/23 05:54:21;;;;;;;9.38;3.40;;;;;;;;;;5013618;28;20460;-25
2022/05/23 05:56:47;;;;;;;10.25;3.90;;;;;;;;;;5013457;28;20050;-25
2022/05/23 05:59:14;;;;;;;6.80;3.10;;;;;;;;;;5011907;28;20063;-25
2022/05/23 06:01:40;;;;;;;7.07;3.22;;;;;;;;;;5013183;28;20450;-25
2022/05/23 06:04:06;;;;;;;8.43;3.50;;;;;;;;;;5013589;28;20056;-25
2022/05/23 06:12:02;;;;;;;8.13;3.25;;;;;;;;;;5013097;28;20050;-25
2022/05/23 06:14:29;;;;;;;6.53;3.67;;;;;;;;;;5015096;28;20046;-25
2022/05/23 06:16:55;;;;;;;7.45;3.25;;;;;;;;;;5014635;28;20104;-25
2022/05/23 06:19:21;;;;;;;6.75;3.38;;;;;;;;;;5011755;28;20061;-25
2022/05/23 06:21:47;;;;;;;8.70;3.60;;;;;;;;;;5013982;28;20096;-25
2022/05/23 06:24:14;;;;;;;6.47;3.65;;;;;;;;;;5011858;28;20050;-25
2022/05/23 06:26:41;;;;;;;5.65;3.55;;;;;;;;;;5012199;28;20401;-25
2022/05/23 06:29:07;;;;;;;7.32;3.50;;;;;;;;;;5012855;28;20172;-25
2022/05/23 06:31:33;;;;;;;6.35;3.47;;;;;;;;;;5013361;28;20093;-25
2022/05/23 06:33:59;;;;;;;11.20;3.92;;;;;;;;;;5013573;28;20065;-25
2022/05/23 06:36:26;;;;;;;8.27;3.40;;;;;;;;;;5012089;28;20046;-25
2022/05/23 06:38:52;;;;;;;11.23;4.05;;;;;;;;;;4999899;28;20478;-25
2022/05/23 06:41:18;;;;;;;7.53;3.55;;;;;;;;;;5024462;28;20050;-25
2022/05/23 06:43:45;;;;;;;8.38;3.35;;;;;;;;;;5017386;28;20049;-26
2022/05/23 06:46:13;;;;;;;5.68;3.28;;;;;;;;;;5031568;28;20049;-25
2022/05/23 06:48:40;;;;;;;5.68;3.88;;;;;;;;;;5036521;28;20184;-25
2022/05/23 06:51:06;;;;;;;10.32;3.70;;;;;;;;;;5035229;28;20404;-25
2022/05/23 06:53:35;;;;;;;5.18;3.40;;;;;;;;;;5036404;28;20085;-25
2022/05/23 06:56:01;;;;;;;8.60;3.55;;;;;;;;;;5036221;28;20046;-25
2022/05/23 06:58:27;;;;;;;6.30;3.50;;;;;;;;;;5018481;28;20049;-25
2022/05/23 07:00:54;;;;;;;7.20;3.60;;;;;;;;;;5016504;28;20041;-25
2022/05/23 07:03:20;;;;;;;6.97;3.20;;;;;;;;;;5017161;28;20115;-25
2022/05/23 07:14:01;;;;;;;7.53;4.20;;;;;;;;;;5033910;28;20636;-25
2022/05/23 07:16:28;;;;;;;6.07;4.13;;;;;;;;;;5017529;28;20042;-25
2022/05/23 07:18:56;;;;;;;6.88;4.22;;;;;;;;;;5016614;28;20054;-25
2022/05/23 07:21:24;;;;;;;10.70;4.00;;;;;;;;;;5014597;28;20056;-25
2022/05/23 07:23:50;;;;;;;6.18;3.75;;;;;;;;;;5016095;28;20552;-25
2022/05/23 07:26:19;;;;;;;5.22;3.05;;;;;;;;;;5018816;28;20477;-25
2022/05/23 07:28:52;;;;;;;7.05;4.28;;;;;;;;;;5020450;28;20053;-25
2022/05/23 07:31:18;;;;;;;7.32;3.28;;;;;;;;;;5020136;28;20501;-25
2022/05/23 07:33:44;;;;;;;9.15;3.50;;;;;;;;;;5023768;28;20050;-25
2022/05/23 07:36:11;;;;;;;7.80;3.53;;;;;;;;;;5036270;28;20041;-25
2022/05/23 07:38:37;;;;;;;8.02;3.92;;;;;;;;;;5033438;28;20050;-25
2022/05/23 07:41:04;;;;;;;8.00;3.88;;;;;;;;;;5015729;28;20132;-25
2022/05/23 07:43:35;;;;;;;7.03;3.83;;;;;;;;;;5015672;28;20150;-25
2022/05/23 07:46:07;;;;;;;5.20;3.20;;;;;;;;;;5017736;28;20050;-25
2022/05/23 07:48:33;;;;;;;6.43;3.15;;;;;;;;;;5036277;28;20183;-25
2022/05/23 07:51:05;;;;;;;7.93;4.18;;;;;;;;;;5034186;28;20057;-25
2022/05/23 08:01:48;;;;;;;7.97;3.60;;;;;;;;;;5033303;28;20053;-26
2022/05/23 08:04:16;;;;;;;6.38;3.67;;;;;;;;;;5016604;28;20053;-26
2022/05/23 08:06:44;;;;;;;5.90;3.13;;;;;;;;;;5023970;28;20455;-25
2022/05/23 08:09:13;;;;;;;7.68;3.58;;;;;;;;;;5023695;28;20045;-25
2022/05/23 08:11:40;;;;;;;5.57;3.28;;;;;;;;;;5029904;28;20180;-26
2022/05/23 08:14:07;;;;;;;7.25;3.90;;;;;;;;;;5021520;28;20503;-26
2022/05/23 08:16:35;;;;;;;6.18;3.97;;;;;;;;;;5034752;28;20076;-25
2022/05/23 08:19:02;;;;;;;9.02;4.00;;;;;;;;;;5035061;28;20042;-25
2022/05/23 08:21:28;;;;;;;8.85;3.88;;;;;;;;;;5034758;28;20049;-26
2022/05/23 08:23:55;;;;;;;7.35;4.20;;;;;;;;;;5033978;28;20052;-26
2022/05/23 08:26:21;;;;;;;8.13;4.25;;;;;;;;;;4998287;28;20505;-26
2022/05/23 08:28:50;;;;;;;7.15;3.92;;;;;;;;;;5023622;28;20536;-26
2022/05/23 08:31:16;;;;;;;6.30;3.47;;;;;;;;;;5013519;28;20409;-26
2022/05/23 08:33:42;;;;;;;9.32;4.70;;;;;;;;;;5032990;28;20416;-26
2022/05/23 08:36:10;;;;;;;7.07;3.30;;;;;;;;;;5034403;28;20132;-26
2022/05/23 08:38:38;;;;;;;8.05;3.50;;;;;;;;;;5034977;28;20471;-26
2022/05/23 08:41:04;;;;;;;7.60;3.13;;;;;;;;;;5033711;28;20492;-26
2022/05/23 08:43:34;;;;;;;6.35;3.22;;;;;;;;;;5023420;28;20073;-26
2022/05/23 08:46:01;;;;;;;5.88;3.13;;;;;;;;;;5014882;28;20080;-26
2022/05/23 08:48:44;;;;;;;10.88;3.47;;;;;;;;;;5014194;28;20083;-26
2022/05/23 08:51:16;;;;;;;9.40;3.67;;;;;;;;;;5015392;28;20107;-26
2022/05/23 08:53:54;;;;;;;6.82;3.97;;;;;;;;;;5014591;28;20046;-26
2022/05/23 08:56:29;;;;;;;7.68;3.92;;;;;;;;;;5023545;28;20038;-26
2022/05/23 08:58:57;;;;;;;9.27;4.10;;;;;;;;;;5030055;28;20104;-27
2022/05/23 09:01:25;;;;;;;9.73;3.83;;;;;;;;;;5023647;28;20452;-26
2022/05/23 09:03:58;;;;;;;5.90;3.60;;;;;;;;;;5014691;28;20393;-26
2022/05/23 09:06:34;;;;;;;7.15;4.53;;;;;;;;;;5017008;28;20046;-26
2022/05/23 09:09:01;;;;;;;8.57;4.70;;;;;;;;;;5033906;28;20053;-27
2022/05/23 09:11:30;;;;;;;5.43;3.70;;;;;;;;;;5033956;28;20147;-26
2022/05/23 09:13:56;;;;;;;8.23;3.85;;;;;;;;;;5033820;28;20096;-27
2022/05/23 09:16:27;;;;;;;6.38;3.63;;;;;;;;;;5032976;28;20041;-26
2022/05/23 09:18:59;;;;;;;8.32;3.67;;;;;;;;;;5032789;28;20045;-27
2022/05/23 09:22:12;;;;;;;8.20;4.10;;;;;;;;;;5030604;28;20046;-26
2022/05/23 09:24:12;;;;;;;9.20;3.90;;;;;;;;;;5013988;28;20054;-26
2022/05/23 09:26:38;;;;;;;6.65;3.45;;;;;;;;;;5013062;28;20097;-27
2022/05/23 09:29:08;;;;;;;7.95;4.38;;;;;;;;;;5014190;28;20072;-26
2022/05/23 09:31:36;;;;;;;5.78;3.22;;;;;;;;;;5013934;28;20090;-29
2022/05/23 09:34:02;;;;;;;7.80;3.65;;;;;;;;;;5032342;28;20056;-26
2022/05/23 09:36:36;;;;;;;7.57;3.78;;;;;;;;;;5033487;28;20046;-26
2022/05/23 09:39:07;;;;;;;8.90;4.30;;;;;;;;;;5033616;28;20045;-26
2022/05/23 09:50:06;;;;;;;7.10;3.70;;;;;;;;;;5031169;28;20136;-27
2022/05/23 09:52:34;;;;;;;13.18;4.75;;;;;;;;;;5030032;28;20057;-26
2022/05/23 09:55:02;;;;;;;7.10;3.10;;;;;;;;;;5033389;28;20505;-27
2022/05/23 09:57:48;;;;;;;5.78;3.50;;;;;;;;;;5034204;28;20376;-26
2022/05/23 10:00:17;;;;;;;6.50;3.25;;;;;;;;;;5028355;28;20054;-27
2022/05/23 10:02:52;;;;;;;5.20;3.25;;;;;;;;;;5032040;28;20041;-27
2022/05/23 10:05:24;;;;;;;7.65;3.33;;;;;;;;;;5032173;28;20057;-26
2022/05/23 10:07:51;;;;;;;7.03;3.10;;;;;;;;;;5032179;28;20045;-26
2022/05/23 10:10:22;;;;;;;6.72;3.55;;;;;;;;;;5033310;28;20049;-27
2022/05/23 10:12:48;;;;;;;6.03;3.20;;;;;;;;;;5031339;28;20088;-27
2022/05/23 10:15:28;;;;;;;7.93;3.20;;;;;;;;;;5031892;28;20404;-26
2022/05/23 10:18:07;;;;;;;7.50;3.63;;;;;;;;;;5030551;28;20432;-26
2022/05/23 10:20:43;;;;;;;4.95;2.70;;;;;;;;;;5025210;28;20508;-27
2022/05/23 10:23:23;;;;;;;4.38;2.33;;;;;;;;;;5024954;28;20374;-27
2022/05/23 10:26:08;;;;;;;6.03;2.15;;;;;;;;;;5037305;28;20060;-27
2022/05/23 10:28:34;;;;;;;6.57;2.60;;;;;;;;;;5037166;28;20049;-27
2022/05/23 10:31:02;;;;;;;4.25;2.13;;;;;;;;;;5036704;28;20053;-27
2022/05/23 10:33:34;;;;;;;3.50;2.15;;;;;;;;;;5031527;28;20487;-27
2022/05/23 10:36:06;;;;;;;4.95;2.17;;;;;;;;;;5000060;28;20049;-26
2022/05/23 10:44:11;;;;;;;4.93;2.25;;;;;;;;;;5017784;28;20501;-27
2022/05/23 10:46:37;;;;;;;6.00;2.15;;;;;;;;;;5016772;28;20081;-27
2022/05/23 10:49:21;;;;;;;5.15;1.70;;;;;;;;;;5016702;28;20050;-27
2022/05/23 10:52:04;;;;;;;5.55;2.10;;;;;;;;;;5017490;28;20045;-27
2022/05/23 10:54:38;;;;;;;4.03;1.50;;;;;;;;;;5003097;28;20049;-27
2022/05/23 10:57:07;;;;;;;6.63;1.83;;;;;;;;;;5035432;28;20045;-27
2022/05/23 10:59:56;;;;;;;4.15;1.80;;;;;;;;;;5030702;28;20042;-27
2022/05/23 11:02:40;;;;;;;4.15;2.00;;;;;;;;;;5024569;28;20049;-27
2022/05/23 11:05:28;;;;;;;4.65;2.38;;;;;;;;;;5029036;28;20037;-28
2022/05/23 11:08:13;;;;;;;3.42;2.28;;;;;;;;;;5021451;28;20136;-25
2022/05/23 11:11:11;;;;;;;2.65;1.65;;;;;;;;;;5026588;28;20264;-25
2022/05/23 11:13:40;;;;;;;3.60;1.63;;;;;;;;;;5025080;28;20489;-25
2022/05/23 11:16:22;;;;;;;3.63;1.90;;;;;;;;;;5031002;28;20095;-25
2022/05/23 11:18:50;;;;;;;4.75;1.98;;;;;;;;;;5023479;28;20493;-25
2022/05/23 11:21:22;;;;;;;3.97;1.65;;;;;;;;;;5025502;28;20088;-27
2022/05/23 11:23:52;;;;;;;4.97;2.20;;;;;;;;;;5021855;28;20482;-25
2022/05/23 11:26:27;;;;;;;6.22;2.00;;;;;;;;;;5024683;28;20038;-25
2022/05/23 11:34:30;;;;;;;7.18;2.33;;;;;;;;;;5016851;28;20133;-26
2022/05/23 11:39:51;;;;;;;4.78;1.80;;;;;;;;;;5024264;28;20515;-28
2022/05/23 11:42:36;;;;;;;4.15;2.08;;;;;;;;;;5014532;28;20132;-25
2022/05/23 11:48:31;;;;;;;4.95;1.80;;;;;;;;;;5014608;28;20506;-25
2022/05/23 11:50:59;;;;;;;6.57;1.90;;;;;;;;;;5015652;28;20050;-25
2022/05/23 11:53:30;;;;;;;3.55;1.77;;;;;;;;;;5014593;28;20042;-25
2022/05/23 11:55:56;;;;;;;7.10;2.15;;;;;;;;;;5029784;28;20484;-25
2022/05/23 11:58:31;;;;;;;3.47;2.10;;;;;;;;;;5035245;28;20053;-25
2022/05/23 12:01:03;;;;;;;5.10;1.80;;;;;;;;;;5035269;28;20064;-25
2022/05/23 12:03:49;;;;;;;5.53;1.90;;;;;;;;;;5035139;28;20049;-25
2022/05/23 12:06:15;;;;;;;5.43;2.05;;;;;;;;;;5032802;28;20042;-26
2022/05/23 12:08:59;;;;;;;3.78;1.58;;;;;;;;;;5016154;28;20050;-25
2022/05/23 12:11:35;;;;;;;3.85;1.90;;;;;;;;;;5025238;28;20120;-25
2022/05/23 12:14:15;;;;;;;8.57;1.90;;;;;;;;;;5025967;28;20080;-25
2022/05/23 12:16:47;;;;;;;3.88;1.85;;;;;;;;;;5020643;28;20048;-25
2022/05/23 12:19:17;;;;;;;3.88;1.75;;;;;;;;;;5022980;28;20042;-25
2022/05/23 12:21:50;;;;;;;5.68;1.92;;;;;;;;;;5034539;28;20050;-25
2022/05/23 12:24:22;;;;;;;6.53;1.70;;;;;;;;;;5031253;28;20045;-25
2022/05/23 12:26:53;;;;;;;3.63;1.38;;;;;;;;;;5034745;28;20041;-24
2022/05/23 12:29:28;;;;;;;5.78;1.65;;;;;;;;;;5034696;28;20132;-24
2022/05/23 12:32:13;;;;;;;3.65;1.50;;;;;;;;;;5034589;28;20056;-24
2022/05/23 12:34:43;;;;;;;4.00;1.85;;;;;;;;;;5020053;28;20046;-24
2022/05/23 12:37:28;;;;;;;2.20;1.10;;;;;;;;;;5025769;28;20511;-24
2022/05/23 12:40:08;;;;;;;7.93;2.03;;;;;;;;;;5022743;28;20133;-24
2022/05/23 12:42:52;;;;;;;3.53;1.60;;;;;;;;;;5033232;28;20091;-25
2022/05/23 12:45:30;;;;;;;2.80;1.45;;;;;;;;;;5025645;28;20046;-24
2022/05/23 12:48:22;;;;;;;3.42;1.70;;;;;;;;;;5024304;28;20568;-26
2022/05/23 12:50:49;;;;;;;;;;;;;;;;;;5017972;28;20077;-25
2022/05/23 12:53:23;;;;;;;6.18;1.70;;;;;;;;;;5018215;28;19968;-24
2022/05/23 12:55:49;;;;;;;3.85;1.90;;;;;;;;;;5029495;28;20052;-25
2022/05/23 12:58:34;;;;;;;2.63;1.60;;;;;;;;;;5028680;28;20045;-24
2022/05/23 13:01:01;;;;;;;5.30;1.52;;;;;;;;;;5028089;28;20076;-24
2022/05/23 13:03:34;;;;;;;3.58;1.50;;;;;;;;;;5024469;28;20176;-24
2022/05/23 13:06:10;;;;;;;3.08;1.45;;;;;;;;;;5013078;28;20057;-24
2022/05/23 13:08:36;;;;;;;5.30;1.92;;;;;;;;;;5014328;28;20116;-25
2022/05/23 13:11:04;;;;;;;4.80;2.10;;;;;;;;;;5014512;28;20183;-24
2022/05/23 13:13:34;;;;;;;7.93;2.40;;;;;;;;;;5014146;28;20092;-24
2022/05/23 13:16:22;;;;;;;3.22;1.70;;;;;;;;;;5026476;28;20072;-24
2022/05/23 13:27:04;;;;;;;3.80;2.40;;;;;;;;;;5014607;28;20081;-24
2022/05/23 13:29:32;;;;;;;6.00;3.00;;;;;;;;;;5013936;28;20069;-24
2022/05/23 13:32:02;;;;;;;3.33;2.10;;;;;;;;;;5014984;28;20096;-24
2022/05/23 13:34:36;;;;;;;8.45;2.47;;;;;;;;;;5016320;28;20049;-25
2022/05/23 13:37:02;;;;;;;6.43;1.83;;;;;;;;;;5017077;28;20803;-24
2022/05/23 13:39:29;;;;;;;3.28;1.90;;;;;;;;;;5024092;28;20045;-24
2022/05/23 13:41:56;;;;;;;7.15;3.20;;;;;;;;;;5025124;28;20054;-24
2022/05/23 13:44:35;;;;;;;6.53;4.88;;;;;;;;;;5014082;28;20133;-25
2022/05/23 13:47:12;;;;;;;6.13;2.40;;;;;;;;;;5025038;28;20049;-24
2022/05/23 13:49:42;;;;;;;3.95;2.47;;;;;;;;;;5014367;28;20045;-24
2022/05/23 13:52:17;;;;;;;4.75;2.55;;;;;;;;;;5029364;28;20163;-24
2022/05/23 13:54:48;;;;;;;5.45;2.05;;;;;;;;;;5025222;28;20050;-24
2022/05/23 13:57:20;;;;;;;5.80;1.77;;;;;;;;;;5037767;28;20045;-24
2022/05/23 13:59:57;;;;;;;4.07;2.15;;;;;;;;;;5037677;28;20084;-24
2022/05/23 14:02:29;;;;;;;6.82;2.50;;;;;;;;;;5024752;28;20049;-24
2022/05/23 14:04:56;;;;;;;4.95;2.55;;;;;;;;;;5032946;28;20129;-25
2022/05/23 14:07:24;;;;;;;6.45;3.10;;;;;;;;;;5018514;28;20558;-24
2022/05/23 14:09:54;;;;;;;5.70;2.50;;;;;;;;;;5034092;28;20076;-24
2022/05/23 14:12:26;;;;;;;5.47;2.50;;;;;;;;;;5037095;28;20049;-24
2022/05/23 14:15:18;;;;;;;5.25;2.47;;;;;;;;;;5037117;28;20049;-24
2022/05/23 14:17:47;;;;;;;6.32;2.35;;;;;;;;;;5017376;28;20416;-27
2022/05/23 14:20:43;;;;;;;3.50;2.20;;;;;;;;;;5017487;28;20058;-24
2022/05/23 14:23:15;;;;;;;5.90;2.35;;;;;;;;;;5016386;28;20056;-24
2022/05/23 14:26:09;;;;;;;5.93;1.98;;;;;;;;;;5017794;28;20045;-24
2022/05/23 14:28:52;;;;;;;4.63;2.17;;;;;;;;;;5024672;28;20049;-24
2022/05/23 14:31:53;;;;;;;5.55;2.88;;;;;;;;;;5020736;28;20053;-24
2022/05/23 14:34:27;;;;;;;5.70;2.67;;;;;;;;;;5014107;28;20054;-24
2022/05/23 14:36:58;;;;;;;4.90;2.30;;;;;;;;;;5016457;28;20038;-25
2022/05/23 14:39:32;;;;;;;10.68;3.50;;;;;;;;;;5027189;28;20095;-26
2022/05/23 14:42:17;;;;;;;13.18;2.88;;;;;;;;;;5031747;28;20053;-24
2022/05/23 14:44:43;;;;;;;6.45;2.22;;;;;;;;;;5037215;28;20045;-24
2022/05/23 14:47:18;;;;;;;6.80;2.47;;;;;;;;;;5036433;28;20041;-24
2022/05/23 14:50:08;;;;;;;6.55;3.15;;;;;;;;;;5036523;28;20087;-24
2022/05/23 14:52:35;;;;;;;5.20;2.63;;;;;;;;;;5036617;28;20477;-24
2022/05/23 14:55:18;;;;;;;6.40;2.67;;;;;;;;;;5026913;28;20455;-24
2022/05/23 15:00:48;;;;;;;6.97;2.78;;;;;;;;;;5016154;28;20112;-24
2022/05/23 15:03:27;;;;;;;10.50;5.80;;;;;;;;;;5017265;28;20052;-24
2022/05/23 15:05:55;;;;;;;7.20;3.78;;;;;;;;;;5016418;28;20053;-24
2022/05/23 15:08:26;;;;;;;7.13;3.05;;;;;;;;;;5019287;28;20049;-25
2022/05/23 15:10:53;;;;;;;4.95;2.83;;;;;;;;;;5019501;28;20037;-24
2022/05/23 15:13:20;;;;;;;7.25;3.03;;;;;;;;;;5030448;28;20045;-24
2022/05/23 15:15:46;;;;;;;4.68;2.75;;;;;;;;;;5034338;28;20060;-25
2022/05/23 15:18:13;;;;;;;6.00;2.92;;;;;;;;;;5005213;28;20137;-25
2022/05/23 15:20:40;;;;;;;7.65;2.50;;;;;;;;;;5014375;28;20077;-24
2022/05/23 15:23:06;;;;;;;3.65;2.30;;;;;;;;;;5013571;28;20042;-25
2022/05/23 15:25:41;;;;;;;6.05;3.35;;;;;;;;;;5011677;28;20080;-24
2022/05/23 15:28:09;;;;;;;5.50;2.83;;;;;;;;;;5015316;28;20045;-25
2022/05/23 15:30:35;;;;;;;4.68;2.80;;;;;;;;;;5014480;28;20108;-25
2022/05/23 15:33:02;;;;;;;6.38;3.08;;;;;;;;;;5015589;28;20104;-24
2022/05/23 15:35:28;;;;;;;6.40;3.45;;;;;;;;;;5015251;28;20452;-24
2022/05/23 15:37:54;;;;;;;6.80;3.47;;;;;;;;;;5012734;28;20046;-27
2022/05/23 15:40:20;;;;;;;9.57;3.70;;;;;;;;;;5015112;28;20393;-24
2022/05/23 15:42:48;;;;;;;6.32;3.85;;;;;;;;;;5017847;28;20053;-25
2022/05/23 15:45:19;;;;;;;8.95;3.83;;;;;;;;;;5020314;28;20046;-24
2022/05/23 15:47:45;;;;;;;8.57;4.45;;;;;;;;;;5014582;28;20045;-24
2022/05/23 15:50:13;;;;;;;9.60;5.13;;;;;;;;;;5014536;28;20042;-25
2022/05/23 15:52:39;;;;;;;7.57;4.15;;;;;;;;;;5015124;28;20140;-24
2022/05/23 15:55:06;;;;;;;5.13;3.35;;;;;;;;;;5021243;28;20056;-25
2022/05/23 15:57:36;;;;;;;6.78;2.60;;;;;;;;;;5019743;28;20146;-23
2022/05/23 16:00:07;;;;;;;5.68;3.50;;;;;;;;;;5026227;28;20052;-21
2022/05/23 16:02:36;;;;;;;7.97;4.38;;;;;;;;;;5016606;28;20050;-20
2022/05/23 16:05:02;;;;;;;8.88;4.63;;;;;;;;;;5014817;28;20417;-19
2022/05/23 16:07:28;;;;;;;8.30;5.00;;;;;;;;;;5016699;28;20043;-18
2022/05/23 16:09:56;;;;;;;8.25;5.10;;;;;;;;;;5022820;28;20045;-18
2022/05/23 16:12:29;;;;;;;7.28;5.50;;;;;;;;;;5033337;28;20045;-19
2022/05/23 16:14:56;;;;;;;12.32;6.88;;;;;;;;;;5014351;28;20057;-18
2022/05/23 16:17:23;;;;;;;11.27;5.53;;;;;;;;;;5021451;28;20112;-18
2022/05/23 16:19:54;;;;;;;11.32;7.20;;;;;;;;;;5024364;28;20049;-18